sensor_id;sensor_type;location;lat;lon;timestamp;temperature;humidity
64468;DHT22;50853;46.836;16.820;2022-08-19T00:00:38;22.00;62.20
64468;DHT22;50853;46.836;16.820;2022-08-19T00:03:05;21.90;61.90
64468;DHT22;50853;46.836;16.820;2022-08-19T00:05:31;21.90;60.80
64468;DHT22;50853;46.836;16.820;2022-08-19T00:07:57;21.90;60.30
64468;DHT22;50853;46.836;16.820;2022-08-19T00:10:23;21.90;59.00
64468;DHT22;50853;46.836;16.820;2022-08-19T00:12:50;21.90;59.10
64468;DHT22;50853;46.836;16.820;2022-08-19T00:15:19;21.90;57.20
64468;DHT22;50853;46.836;16.820;2022-08-19T00:17:45;21.90;57.80
64468;DHT22;50853;46.836;16.820;2022-08-19T00:20:14;21.90;59.20
64468;DHT22;50853;46.836;16.820;2022-08-19T00:22:42;21.80;58.70
64468;DHT22;50853;46.836;16.820;2022-08-19T00:25:08;21.80;59.40
64468;DHT22;50853;46.836;16.820;2022-08-19T00:27:34;21.70;60.80
64468;DHT22;50853;46.836;16.820;2022-08-19T00:30:00;21.70;59.60
64468;DHT22;50853;46.836;16.820;2022-08-19T00:32:27;21.70;61.50
64468;DHT22;50853;46.836;16.820;2022-08-19T00:34:53;21.60;61.10
64468;DHT22;50853;46.836;16.820;2022-08-19T00:37:21;21.60;61.20
64468;DHT22;50853;46.836;16.820;2022-08-19T00:39:49;21.50;61.80
64468;DHT22;50853;46.836;16.820;2022-08-19T00:42:17;21.50;61.60
64468;DHT22;50853;46.836;16.820;2022-08-19T00:44:43;21.50;62.30
64468;DHT22;50853;46.836;16.820;2022-08-19T00:47:09;21.30;62.50
64468;DHT22;50853;46.836;16.820;2022-08-19T00:49:47;21.30;62.60
64468;DHT22;50853;46.836;16.820;2022-08-19T00:52:34;21.30;62.30
64468;DHT22;50853;46.836;16.820;2022-08-19T00:55:01;21.20;62.60
64468;DHT22;50853;46.836;16.820;2022-08-19T00:57:31;21.20;61.10
64468;DHT22;50853;46.836;16.820;2022-08-19T00:59:59;21.20;60.40
64468;DHT22;50853;46.836;16.820;2022-08-19T01:02:27;21.20;61.80
64468;DHT22;50853;46.836;16.820;2022-08-19T01:04:53;21.20;62.40
64468;DHT22;50853;46.836;16.820;2022-08-19T01:07:19;21.20;62.80
64468;DHT22;50853;46.836;16.820;2022-08-19T01:09:46;21.10;63.70
64468;DHT22;50853;46.836;16.820;2022-08-19T01:12:12;21.10;64.60
64468;DHT22;50853;46.836;16.820;2022-08-19T01:14:39;21.00;64.70
64468;DHT22;50853;46.836;16.820;2022-08-19T01:17:09;21.00;63.10
64468;DHT22;50853;46.836;16.820;2022-08-19T01:19:39;21.00;63.50
64468;DHT22;50853;46.836;16.820;2022-08-19T01:22:26;21.00;65.10
64468;DHT22;50853;46.836;16.820;2022-08-19T01:24:53;20.90;64.00
64468;DHT22;50853;46.836;16.820;2022-08-19T01:27:18;21.00;62.90
64468;DHT22;50853;46.836;16.820;2022-08-19T01:29:45;21.00;62.40
64468;DHT22;50853;46.836;16.820;2022-08-19T01:32:14;21.00;62.20
64468;DHT22;50853;46.836;16.820;2022-08-19T01:34:40;20.90;62.80
64468;DHT22;50853;46.836;16.820;2022-08-19T01:37:08;20.90;64.70
64468;DHT22;50853;46.836;16.820;2022-08-19T01:39:37;20.80;64.90
64468;DHT22;50853;46.836;16.820;2022-08-19T01:42:04;20.80;63.70
64468;DHT22;50853;46.836;16.820;2022-08-19T01:44:32;20.80;63.40
64468;DHT22;50853;46.836;16.820;2022-08-19T01:46:58;20.80;62.10
64468;DHT22;50853;46.836;16.820;2022-08-19T01:49:25;20.80;63.10
64468;DHT22;50853;46.836;16.820;2022-08-19T01:51:52;20.80;63.10
64468;DHT22;50853;46.836;16.820;2022-08-19T01:54:19;20.80;63.10
64468;DHT22;50853;46.836;16.820;2022-08-19T01:56:46;20.80;63.00
64468;DHT22;50853;46.836;16.820;2022-08-19T01:59:14;20.80;63.00
64468;DHT22;50853;46.836;16.820;2022-08-19T02:01:41;20.80;63.20
64468;DHT22;50853;46.836;16.820;2022-08-19T02:04:07;20.80;62.70
64468;DHT22;50853;46.836;16.820;2022-08-19T02:06:34;20.80;61.80
64468;DHT22;50853;46.836;16.820;2022-08-19T02:09:00;20.80;62.80
64468;DHT22;50853;46.836;16.820;2022-08-19T02:11:29;20.80;63.00
64468;DHT22;50853;46.836;16.820;2022-08-19T02:13:57;20.80;63.60
64468;DHT22;50853;46.836;16.820;2022-08-19T02:16:23;20.70;64.80
64468;DHT22;50853;46.836;16.820;2022-08-19T02:18:50;20.70;63.10
64468;DHT22;50853;46.836;16.820;2022-08-19T02:21:21;20.70;64.40
64468;DHT22;50853;46.836;16.820;2022-08-19T02:23:47;20.70;64.50
64468;DHT22;50853;46.836;16.820;2022-08-19T02:26:13;20.70;63.40
64468;DHT22;50853;46.836;16.820;2022-08-19T02:28:40;20.60;64.60
64468;DHT22;50853;46.836;16.820;2022-08-19T02:31:16;20.60;65.40
64468;DHT22;50853;46.836;16.820;2022-08-19T02:33:42;20.60;65.40
64468;DHT22;50853;46.836;16.820;2022-08-19T02:36:10;20.60;64.90
64468;DHT22;50853;46.836;16.820;2022-08-19T02:38:37;20.50;65.50
64468;DHT22;50853;46.836;16.820;2022-08-19T02:41:10;20.50;65.60
64468;DHT22;50853;46.836;16.820;2022-08-19T02:43:37;20.50;66.40
64468;DHT22;50853;46.836;16.820;2022-08-19T02:46:15;20.40;66.20
64468;DHT22;50853;46.836;16.820;2022-08-19T02:48:47;20.40;66.20
64468;DHT22;50853;46.836;16.820;2022-08-19T02:51:19;20.30;66.60
64468;DHT22;50853;46.836;16.820;2022-08-19T02:53:46;20.30;66.60
64468;DHT22;50853;46.836;16.820;2022-08-19T02:56:12;20.20;67.90
64468;DHT22;50853;46.836;16.820;2022-08-19T02:58:37;20.20;66.10
64468;DHT22;50853;46.836;16.820;2022-08-19T03:01:03;20.20;67.50
64468;DHT22;50853;46.836;16.820;2022-08-19T03:03:29;20.10;67.90
64468;DHT22;50853;46.836;16.820;2022-08-19T03:06:11;20.20;67.10
64468;DHT22;50853;46.836;16.820;2022-08-19T03:08:40;20.20;67.80
64468;DHT22;50853;46.836;16.820;2022-08-19T03:11:06;20.20;68.60
64468;DHT22;50853;46.836;16.820;2022-08-19T03:13:32;20.10;68.40
64468;DHT22;50853;46.836;16.820;2022-08-19T03:15:58;20.10;67.30
64468;DHT22;50853;46.836;16.820;2022-08-19T03:18:24;20.10;67.30
64468;DHT22;50853;46.836;16.820;2022-08-19T03:20:52;20.10;66.10
64468;DHT22;50853;46.836;16.820;2022-08-19T03:23:22;20.20;65.70
64468;DHT22;50853;46.836;16.820;2022-08-19T03:25:50;20.30;65.00
64468;DHT22;50853;46.836;16.820;2022-08-19T03:28:16;20.30;65.00
64468;DHT22;50853;46.836;16.820;2022-08-19T03:30:53;20.40;64.20
64468;DHT22;50853;46.836;16.820;2022-08-19T03:33:21;20.40;63.90
64468;DHT22;50853;46.836;16.820;2022-08-19T03:35:47;20.40;64.00
64468;DHT22;50853;46.836;16.820;2022-08-19T03:38:24;20.50;63.80
64468;DHT22;50853;46.836;16.820;2022-08-19T03:40:50;20.50;64.00
64468;DHT22;50853;46.836;16.820;2022-08-19T03:43:15;20.50;65.10
64468;DHT22;50853;46.836;16.820;2022-08-19T03:45:44;20.40;64.40
64468;DHT22;50853;46.836;16.820;2022-08-19T03:48:10;20.40;65.30
64468;DHT22;50853;46.836;16.820;2022-08-19T03:50:40;20.30;65.90
64468;DHT22;50853;46.836;16.820;2022-08-19T03:53:06;20.30;66.10
64468;DHT22;50853;46.836;16.820;2022-08-19T03:55:40;20.30;66.20
64468;DHT22;50853;46.836;16.820;2022-08-19T03:58:06;20.30;66.20
64468;DHT22;50853;46.836;16.820;2022-08-19T04:00:32;20.30;66.00
64468;DHT22;50853;46.836;16.820;2022-08-19T04:02:59;20.20;66.80
64468;DHT22;50853;46.836;16.820;2022-08-19T04:05:27;20.20;66.90
64468;DHT22;50853;46.836;16.820;2022-08-19T04:07:54;20.10;66.30
64468;DHT22;50853;46.836;16.820;2022-08-19T04:10:22;20.20;66.60
64468;DHT22;50853;46.836;16.820;2022-08-19T04:12:49;20.20;66.60
64468;DHT22;50853;46.836;16.820;2022-08-19T04:15:15;20.20;66.90
64468;DHT22;50853;46.836;16.820;2022-08-19T04:17:41;20.20;67.40
64468;DHT22;50853;46.836;16.820;2022-08-19T04:20:07;20.20;67.70
64468;DHT22;50853;46.836;16.820;2022-08-19T04:22:33;20.20;68.20
64468;DHT22;50853;46.836;16.820;2022-08-19T04:24:58;20.20;68.20
64468;DHT22;50853;46.836;16.820;2022-08-19T04:27:24;20.20;67.50
64468;DHT22;50853;46.836;16.820;2022-08-19T04:29:50;20.30;67.60
64468;DHT22;50853;46.836;16.820;2022-08-19T04:32:16;20.30;67.30
64468;DHT22;50853;46.836;16.820;2022-08-19T04:34:42;20.40;67.60
64468;DHT22;50853;46.836;16.820;2022-08-19T04:37:08;20.40;67.60
64468;DHT22;50853;46.836;16.820;2022-08-19T04:39:38;20.50;66.60
64468;DHT22;50853;46.836;16.820;2022-08-19T04:42:22;20.50;67.00
64468;DHT22;50853;46.836;16.820;2022-08-19T04:45:08;20.50;67.30
64468;DHT22;50853;46.836;16.820;2022-08-19T04:47:41;20.60;68.00
64468;DHT22;50853;46.836;16.820;2022-08-19T04:50:08;20.60;67.00
64468;DHT22;50853;46.836;16.820;2022-08-19T04:52:38;20.60;66.70
64468;DHT22;50853;46.836;16.820;2022-08-19T04:55:09;20.60;67.30
64468;DHT22;50853;46.836;16.820;2022-08-19T04:57:36;20.60;67.40
64468;DHT22;50853;46.836;16.820;2022-08-19T05:00:06;20.60;67.60
